This is the latest recevied weather packets stored in our database for station/object K5SVV. If no packets are shown the sender has not sent any weather packets the latest 10 day(s).
| Time | Temp. | Humidity | Pressure | Rain* | Wind** | Luminosity | Snow |
|---|---|---|---|---|---|---|---|
| 1778080369 | 12.22° C | 88% | 1013.8 hPa | 0 mm | - | 32 W/m² | - |
| 1778080066 | 12.22° C | 88% | 1014 hPa | 0 mm | - | 38 W/m² | - |
| 1778079763 | 12.22° C | 87% | 1013.7 hPa | 0 mm | - | 53 W/m² | - |
| 1778079460 | 12.22° C | 87% | 1013.8 hPa | 0 mm | - | 44 W/m² | - |
| 1778079156 | 12.22° C | 87% | 1014.5 hPa | 0 mm | - | 21 W/m² | - |
| 1778078854 | 12.22° C | 87% | 1013.7 hPa | 0 mm | - | 26 W/m² | - |
| 1778078551 | 12.78° C | 86% | 1013.5 hPa | 0 mm | - | 28 W/m² | - |
| 1778078248 | 12.78° C | 85% | 1013.4 hPa | 0 mm | - | 34 W/m² | - |
| 1778077946 | 12.78° C | 85% | 1013.3 hPa | 0 mm | - | 37 W/m² | - |
| 1778077644 | 12.78° C | 85% | 1013 hPa | 0 mm | - | 46 W/m² | - |
| 1778077342 | 12.78° C | 85% | 1013 hPa | 0 mm | - | 39 W/m² | - |
| 1778077040 | 12.78° C | 85% | 1012.8 hPa | 0 mm | - | 39 W/m² | - |
| 1778076738 | 12.78° C | 85% | 1012.5 hPa | 0 mm | - | 56 W/m² | - |
| 1778076435 | 12.78° C | 85% | 1012.6 hPa | 0 mm | - | 43 W/m² | - |
| 1778076132 | 12.78° C | 85% | 1012.3 hPa | 0 mm | - | 52 W/m² | - |
| 1778075829 | 12.78° C | 85% | 1012.3 hPa | 0 mm | - | 52 W/m² | - |
| 1778075525 | 12.78° C | 85% | 1012.8 hPa | 0 mm | - | 40 W/m² | - |
| 1778075222 | 12.78° C | 85% | 1012.7 hPa | 0 mm | - | 34 W/m² | - |
| 1778074918 | 12.78° C | 84% | 1012.2 hPa | 0 mm | - | 53 W/m² | - |
| 1778074615 | 12.78° C | 84% | 1012.1 hPa | 0 mm | - | 59 W/m² | - |
| 1778074312 | 12.78° C | 84% | 1012.4 hPa | 0 mm | - | 60 W/m² | - |
| 1778074009 | 12.78° C | 84% | 1012.1 hPa | 0 mm | - | 73 W/m² | - |
| 1778073706 | 13.33° C | 84% | 1012.1 hPa | 0 mm | - | 52 W/m² | - |
| 1778073404 | 13.33° C | 84% | 1011.9 hPa | 0 mm | - | 64 W/m² | - |
| 1778073100 | 12.78° C | 84% | 1012 hPa | 0 mm | - | 60 W/m² | - |
* Rain latest hour (hover to see other rain measurements)
** Current wind speed in m/s (hover to see current wind gust speed)